Time;durP1;ratioP1;P1;durP2;ratioP2;P2;SDS_P1;SDS_P2;PMS_P1;PMS_P2;Temp;Humidity;BMP_temperature;BMP_pressure;BME280_temperature;BME280_humidity;BME280_pressure;Samples;Min_cycle;Max_cycle;Signal;HPM_P1;HPM_P2
2021/07/24 17:11:54;;;;;;;11.93;9.13;;;;;;;26.97;43.67;100790.31;5100983;27;1193220;-84
2021/07/24 17:14:19;;;;;;;17.00;9.43;;;;;;;26.87;44.12;100790.19;5076778;28;20056;-84
2021/07/24 17:16:45;;;;;;;12.18;9.25;;;;;;;26.95;41.76;100778.97;5109762;28;20042;-84
2021/07/24 17:19:10;;;;;;;14.80;11.35;;;;;;;26.96;41.37;100782.47;5092937;28;20038;-81
2021/07/24 17:21:37;;;;;;;13.57;10.13;;;;;;;27.00;41.60;100778.22;5121784;28;20046;-82
2021/07/24 17:24:07;;;;;;;14.95;9.80;;;;;;;27.03;43.16;100775.03;5097001;28;20028;-82
2021/07/24 17:26:33;;;;;;;14.93;9.13;;;;;;;27.04;41.17;100781.22;5088067;28;20031;-82
2021/07/24 17:28:59;;;;;;;17.35;9.65;;;;;;;26.92;41.37;100776.78;5112088;28;20032;-82
2021/07/24 17:31:25;;;;;;;13.20;9.02;;;;;;;26.92;41.55;100782.19;5103130;28;20604;-83
2021/07/24 17:33:53;;;;;;;13.60;9.63;;;;;;;26.85;41.37;100776.19;5089024;28;20028;-80
2021/07/24 17:36:19;;;;;;;16.40;9.32;;;;;;;26.83;42.32;100774.81;5065837;28;20036;-83
2021/07/24 17:38:45;;;;;;;14.20;9.60;;;;;;;26.82;41.50;100771.31;5071518;28;20440;-84
2021/07/24 17:41:16;;;;;;;12.90;9.20;;;;;;;26.69;44.92;100766.31;5109130;28;20060;-80
2021/07/24 17:43:42;;;;;;;11.98;9.52;;;;;;;26.70;42.78;100767.97;5093345;28;20035;-83
2021/07/24 17:46:08;;;;;;;12.75;9.63;;;;;;;26.64;42.83;100759.03;5092381;28;20046;-85
2021/07/24 17:48:34;;;;;;;13.00;10.02;;;;;;;26.66;42.92;100761.47;5121332;28;20056;-84
2021/07/24 17:51:00;;;;;;;25.02;10.68;;;;;;;26.57;43.04;100753.00;5085391;28;20194;-86
2021/07/24 17:53:27;;;;;;;10.60;8.85;;;;;;;26.53;43.07;100758.06;5086579;28;20028;-86
2021/07/24 17:55:53;;;;;;;13.88;10.20;;;;;;;26.54;42.85;100764.25;5054631;28;20528;-85
2021/07/24 17:58:19;;;;;;;14.00;10.68;;;;;;;26.51;44.16;100764.78;5074229;28;20119;-85
2021/07/24 18:00:44;;;;;;;13.00;9.75;;;;;;;26.55;42.33;100757.81;5087110;28;20125;-84
2021/07/24 18:03:10;;;;;;;12.95;10.02;;;;;;;26.42;43.13;100745.59;5108093;28;20047;-84
2021/07/24 18:05:37;;;;;;;13.73;10.63;;;;;;;26.53;43.96;100762.66;5087547;28;20081;-85
2021/07/24 18:08:03;;;;;;;13.77;10.98;;;;;;;26.54;42.91;100761.56;5087768;28;20505;-86
2021/07/24 18:10:29;;;;;;;13.63;10.55;;;;;;;26.34;44.16;100752.22;5101269;28;20035;-84
2021/07/24 18:13:04;;;;;;;13.63;10.25;;;;;;;26.32;43.69;100761.59;5108814;28;20032;-83
2021/07/24 18:15:31;;;;;;;12.68;9.98;;;;;;;26.21;45.05;100768.72;5109618;28;20485;-84
2021/07/24 18:17:56;;;;;;;14.05;10.82;;;;;;;26.08;45.59;100763.72;5109062;28;20543;-85
2021/07/24 18:20:22;;;;;;;13.50;10.13;;;;;;;25.96;46.45;100761.97;5101562;28;20032;-85
2021/07/24 18:22:48;;;;;;;13.88;9.73;;;;;;;25.85;45.95;100754.81;5107670;28;20043;-82
2021/07/24 18:25:14;;;;;;;14.10;9.65;;;;;;;25.74;46.64;100756.53;5070824;28;20122;-84
2021/07/24 18:27:40;;;;;;;13.60;10.02;;;;;;;25.64;47.02;100759.88;5065011;28;20055;-86
2021/07/24 18:30:06;;;;;;;14.23;9.48;;;;;;;25.60;47.64;100764.13;5061822;28;20474;-83
2021/07/24 18:32:34;;;;;;;14.52;10.25;;;;;;;25.54;47.45;100757.06;5084798;28;20034;-84
2021/07/24 18:35:01;;;;;;;13.63;9.77;;;;;;;25.52;48.27;100766.41;5097200;28;20465;-82
2021/07/24 18:37:26;;;;;;;13.15;10.23;;;;;;;25.45;48.09;100758.53;5061625;28;20024;-85
2021/07/24 18:39:52;;;;;;;12.57;10.10;;;;;;;25.35;48.44;100764.53;5078267;28;20093;-84
2021/07/24 18:42:17;;;;;;;12.25;9.90;;;;;;;25.31;48.06;100762.59;5061537;28;20457;-85
2021/07/24 18:44:43;;;;;;;17.45;10.43;;;;;;;25.27;48.34;100766.84;5077720;28;20112;-84
2021/07/24 18:47:08;;;;;;;10.85;9.75;;;;;;;25.19;48.51;100760.78;5062903;28;20043;-85
2021/07/24 18:49:34;;;;;;;13.63;10.55;;;;;;;25.14;48.38;100760.69;5078383;28;20036;-84
2021/07/24 18:51:59;;;;;;;12.00;9.85;;;;;;;25.11;48.31;100763.88;5094006;28;20115;-83
2021/07/24 18:54:25;;;;;;;13.88;10.48;;;;;;;25.02;49.44;100759.94;5073489;28;20041;-83
2021/07/24 18:56:51;;;;;;;17.23;11.00;;;;;;;24.95;49.45;100757.41;5091690;28;20028;-84
2021/07/24 18:59:16;;;;;;;13.65;10.50;;;;;;;24.90;49.49;100754.63;5074494;28;20040;-85
2021/07/24 19:01:42;;;;;;;16.17;11.25;;;;;;;24.78;49.64;100756.56;5079729;28;20696;-86
2021/07/24 19:04:08;;;;;;;17.90;10.15;;;;;;;24.70;50.34;100752.41;5084971;28;20043;-85
2021/07/24 19:06:33;;;;;;;14.18;11.35;;;;;;;24.61;49.63;100743.94;5088500;28;20086;-83
2021/07/24 19:08:59;;;;;;;16.73;10.38;;;;;;;24.56;49.62;100745.69;5094134;28;20485;-85
2021/07/24 19:11:26;;;;;;;14.93;10.52;;;;;;;24.49;50.21;100743.97;5069185;28;20024;-86
2021/07/24 19:13:51;;;;;;;13.82;11.45;;;;;;;24.35;50.03;100747.16;5040773;28;20125;-85
2021/07/24 19:16:21;;;;;;;16.70;11.07;;;;;;;24.35;50.13;100750.63;5047432;28;20722;-85
2021/07/24 19:18:48;;;;;;;14.77;11.13;;;;;;;24.29;50.10;100748.91;5076717;28;20028;-85
2021/07/24 19:21:22;;;;;;;13.25;11.02;;;;;;;24.23;50.79;100750.69;5066696;28;20092;-86
2021/07/24 19:23:48;;;;;;;13.35;10.63;;;;;;;24.22;51.56;100759.78;5073371;28;20029;-84
2021/07/24 19:26:14;;;;;;;13.40;10.90;;;;;;;24.12;51.80;100764.09;5085464;28;20110;-86
2021/07/24 19:28:41;;;;;;;16.58;10.48;;;;;;;24.00;53.62;100751.53;5066653;28;20032;-87
2021/07/24 19:31:07;;;;;;;17.20;11.65;;;;;;;23.92;53.68;100759.13;5102007;28;20030;-87
2021/07/24 19:33:33;;;;;;;14.82;11.05;;;;;;;23.77;54.74;100756.88;5091715;28;20036;-84
2021/07/24 19:35:58;;;;;;;15.00;11.77;;;;;;;23.71;54.65;100756.78;5064884;28;20039;-86
2021/07/24 19:38:24;;;;;;;16.35;11.60;;;;;;;23.57;55.93;100751.91;5109400;28;20040;-87
2021/07/24 19:40:50;;;;;;;15.93;10.10;;;;;;;23.43;55.75;100743.25;5109855;28;20035;-84
2021/07/24 19:43:15;;;;;;;19.80;11.20;;;;;;;23.36;55.10;100745.22;5079902;28;20024;-81
2021/07/24 19:45:41;;;;;;;20.55;12.02;;;;;;;23.28;55.90;100739.19;5076019;28;20028;-85
2021/07/24 19:48:06;;;;;;;13.18;10.75;;;;;;;23.29;56.21;100742.69;5076073;28;20039;-84
2021/07/24 19:50:32;;;;;;;19.80;12.07;;;;;;;23.26;57.11;100752.00;5090952;28;20040;-85
2021/07/24 19:52:58;;;;;;;17.35;11.07;;;;;;;23.21;58.14;100762.56;5057502;28;20044;-85
2021/07/24 19:55:23;;;;;;;14.60;11.57;;;;;;;23.09;58.31;100753.69;5072633;28;20032;-84
2021/07/24 19:57:49;;;;;;;13.13;10.23;;;;;;;23.04;58.38;100753.56;5055606;28;20036;-84
2021/07/24 20:00:15;;;;;;;16.48;12.15;;;;;;;23.08;58.47;100752.06;5067424;28;20055;-85
2021/07/24 20:02:41;;;;;;;16.27;10.10;;;;;;;23.08;58.74;100754.75;5072329;28;20070;-85
2021/07/24 20:05:07;;;;;;;17.52;10.57;;;;;;;23.04;58.19;100751.72;5055625;28;20066;-86
2021/07/24 20:07:33;;;;;;;14.45;10.05;;;;;;;23.04;58.01;100753.56;5075229;28;20028;-87
2021/07/24 20:09:59;;;;;;;12.15;10.23;;;;;;;23.08;57.57;100758.22;5072450;28;20101;-85
2021/07/24 20:12:25;;;;;;;15.73;10.95;;;;;;;23.08;56.83;100746.72;5087469;28;20032;-82
2021/07/24 20:14:50;;;;;;;16.83;10.43;;;;;;;23.09;56.53;100738.47;5086354;28;20028;-82
2021/07/24 20:17:16;;;;;;;13.20;10.23;;;;;;;23.08;56.70;100747.53;5061871;28;20096;-85
2021/07/24 20:19:42;;;;;;;14.68;10.40;;;;;;;23.06;56.64;100741.59;5059577;28;20081;-82
2021/07/24 20:22:07;;;;;;;17.13;11.05;;;;;;;23.08;56.50;100738.69;5083476;28;20239;-84
2021/07/24 20:24:33;;;;;;;14.57;10.60;;;;;;;23.05;56.77;100736.47;5080151;28;20044;-81
2021/07/24 20:26:58;;;;;;;16.83;11.32;;;;;;;23.05;56.33;100734.59;5115520;28;20031;-81
2021/07/24 20:29:24;;;;;;;19.15;10.45;;;;;;;22.98;56.40;100733.03;5093676;28;20410;-80
2021/07/24 20:31:50;;;;;;;20.60;12.07;;;;;;;23.01;55.88;100737.94;5076438;28;20040;-82
2021/07/24 20:34:16;;;;;;;19.23;11.80;;;;;;;22.99;57.46;100732.81;5061542;28;20501;-81
2021/07/24 20:36:42;;;;;;;15.85;11.68;;;;;;;22.82;57.89;100719.28;5076833;28;20032;-82
2021/07/24 20:39:07;;;;;;;15.50;11.50;;;;;;;22.90;56.80;100729.66;5074470;28;20040;-82
2021/07/24 20:41:33;;;;;;;17.63;11.10;;;;;;;22.85;56.99;100731.38;5075697;28;20036;-85
2021/07/24 20:43:58;;;;;;;15.15;11.20;;;;;;;22.81;57.29;100739.06;5075833;28;20036;-85
2021/07/24 20:46:24;;;;;;;15.35;11.57;;;;;;;22.86;56.68;100741.84;5075474;28;20062;-84
2021/07/24 20:48:49;;;;;;;22.08;11.43;;;;;;;22.97;56.19;100736.78;5058832;28;20111;-82
2021/07/24 20:51:15;;;;;;;16.38;11.52;;;;;;;22.91;57.07;100738.50;5059250;28;20124;-84
2021/07/24 20:53:40;;;;;;;15.38;12.23;;;;;;;22.88;56.83;100738.94;5072340;28;20528;-84
2021/07/24 20:56:06;;;;;;;14.35;10.63;;;;;;;22.99;56.93;100742.72;5039689;28;20068;-87
2021/07/24 20:58:33;;;;;;;13.73;10.90;;;;;;;22.93;57.37;100736.41;5055968;28;20033;-83
2021/07/24 21:00:59;;;;;;;16.95;11.23;;;;;;;22.89;57.24;100738.72;5065367;28;20445;-86
2021/07/24 21:03:26;;;;;;;18.42;10.85;;;;;;;22.92;57.01;100738.28;5087921;28;20037;-84
2021/07/24 21:05:53;;;;;;;16.30;12.10;;;;;;;22.93;57.24;100741.75;5076473;28;20520;-84
2021/07/24 21:08:19;;;;;;;14.30;10.98;;;;;;;22.90;57.46;100750.22;5075899;28;20448;-82
2021/07/24 21:10:46;;;;;;;18.50;10.82;;;;;;;22.85;57.39;100748.25;5093136;28;20546;-83
2021/07/24 21:13:12;;;;;;;15.00;10.70;;;;;;;23.00;56.36;100744.31;5081020;28;20032;-83
2021/07/24 21:15:42;;;;;;;14.00;10.48;;;;;;;23.03;56.68;100755.41;5094451;28;20126;-84
2021/07/24 21:18:09;;;;;;;15.57;11.30;;;;;;;23.09;56.28;100764.38;5064978;28;20498;-83
2021/07/24 21:20:37;;;;;;;14.38;11.93;;;;;;;23.05;57.06;100765.88;5059647;28;20393;-81
2021/07/24 21:23:03;;;;;;;14.75;11.77;;;;;;;22.87;57.29;100751.50;5052438;28;20035;-81
2021/07/24 21:25:29;;;;;;;16.83;12.52;;;;;;;22.88;58.85;100763.03;5091523;28;20051;-82
2021/07/24 21:27:54;;;;;;;19.15;12.50;;;;;;;22.85;59.35;100766.13;5095895;28;20099;-82
2021/07/24 21:30:20;;;;;;;14.80;12.45;;;;;;;22.69;59.13;100764.94;5076566;28;20032;-82
2021/07/24 21:32:49;;;;;;;15.95;11.50;;;;;;;22.76;59.06;100776.34;5070974;28;20047;-81
2021/07/24 21:35:15;;;;;;;17.42;12.20;;;;;;;22.70;59.30;100786.09;5059520;28;20088;-84
2021/07/24 21:37:41;;;;;;;18.20;11.13;;;;;;;22.65;60.78;100793.16;5064539;28;20036;-81
2021/07/24 21:40:07;;;;;;;14.88;12.07;;;;;;;22.51;61.20;100796.00;5066385;28;20028;-80
2021/07/24 21:42:33;;;;;;;22.27;14.63;;;;;;;22.53;61.98;100806.47;5063329;28;20032;-79
2021/07/24 21:44:58;;;;;;;31.73;22.58;;;;;;;22.44;62.30;100797.13;5085327;28;20501;-81
2021/07/24 21:47:24;;;;;;;18.40;12.35;;;;;;;22.28;62.55;100782.50;5056852;28;20023;-80
2021/07/24 21:49:49;;;;;;;16.70;12.23;;;;;;;22.19;62.89;100800.66;5078168;28;20767;-82
2021/07/24 21:52:15;;;;;;;18.95;12.82;;;;;;;22.10;63.62;100800.13;5094556;28;20114;-81
2021/07/24 21:54:40;;;;;;;18.38;13.88;;;;;;;22.12;62.71;100794.56;5093729;28;20035;-83
2021/07/24 21:57:06;;;;;;;16.38;11.85;;;;;;;22.36;61.61;100792.91;5094922;28;20031;-83
2021/07/24 21:59:32;;;;;;;16.15;12.10;;;;;;;22.32;60.18;100787.19;5098354;28;20462;-81
2021/07/24 22:01:58;;;;;;;13.75;11.38;;;;;;;22.46;59.76;100792.38;5084763;28;20459;-80
2021/07/24 22:04:23;;;;;;;14.65;12.07;;;;;;;22.53;59.15;100788.56;5112235;28;20038;-82
2021/07/24 22:06:49;;;;;;;16.92;11.32;;;;;;;22.57;59.00;100786.25;5098116;28;20500;-84
2021/07/24 22:09:15;;;;;;;17.70;12.88;;;;;;;22.57;59.32;100794.28;5082145;28;20043;-84
2021/07/24 22:11:40;;;;;;;19.90;13.02;;;;;;;22.55;60.01;100786.50;5057953;28;20386;-82
2021/07/24 22:14:06;;;;;;;23.55;13.60;;;;;;;22.46;62.06;100782.47;5080606;28;20089;-81
2021/07/24 22:16:31;;;;;;;22.08;12.63;;;;;;;22.48;61.02;100776.91;5065015;28;20035;-84
2021/07/24 22:18:57;;;;;;;14.80;11.77;;;;;;;22.45;61.90;100785.38;5085438;28;20042;-82
2021/07/24 22:21:27;;;;;;;23.10;12.38;;;;;;;22.34;62.57;100793.13;5060966;28;20080;-81
2021/07/24 22:23:56;;;;;;;20.75;12.13;;;;;;;22.29;63.54;100790.28;5045659;28;20482;-87
2021/07/24 22:26:25;;;;;;;20.92;13.02;;;;;;;22.13;67.34;100783.66;5071798;28;20051;-80
2021/07/24 22:28:52;;;;;;;17.25;13.57;;;;;;;21.56;72.47;100770.44;5063398;28;20119;-83
2021/07/24 22:31:18;;;;;;;17.58;13.40;;;;;;;21.22;76.59;100762.88;5099967;28;20059;-80
2021/07/24 22:33:45;;;;;;;16.15;12.80;;;;;;;20.95;78.24;100758.56;5083833;28;20027;-82
2021/07/24 22:36:10;;;;;;;20.85;13.13;;;;;;;20.69;79.66;100745.38;5095360;28;20051;-84
2021/07/24 22:38:36;;;;;;;17.98;12.98;;;;;;;20.48;82.88;100749.97;5065470;28;20036;-80
2021/07/24 22:41:01;;;;;;;20.60;13.57;;;;;;;20.24;85.57;100759.47;5079605;27;20032;-83
2021/07/24 22:43:27;;;;;;;16.90;13.45;;;;;;;20.03;87.74;100740.06;5061113;28;20094;-78
2021/07/24 22:45:52;;;;;;;17.75;12.82;;;;;;;19.87;89.09;100729.06;5082607;28;20077;-84
2021/07/24 22:48:18;;;;;;;16.88;13.70;;;;;;;19.72;89.84;100731.91;5082222;28;20035;-82
2021/07/24 22:50:44;;;;;;;15.93;13.18;;;;;;;19.51;91.09;100696.53;5078079;28;20039;-84
2021/07/24 22:53:10;;;;;;;19.02;12.75;;;;;;;19.58;92.90;100707.19;5065928;28;20081;-85
2021/07/24 22:55:36;;;;;;;20.38;13.75;;;;;;;19.51;94.36;100695.72;5066977;28;20027;-85
2021/07/24 22:58:02;;;;;;;24.67;13.52;;;;;;;19.37;94.97;100673.66;5091347;27;20027;-80
2021/07/24 23:00:29;;;;;;;17.75;13.27;;;;;;;19.41;95.20;100685.50;5084817;28;20027;-83
2021/07/24 23:02:55;;;;;;;22.50;13.38;;;;;;;19.22;94.86;100679.19;5080337;28;20196;-85
2021/07/24 23:05:21;;;;;;;22.15;14.75;;;;;;;19.29;94.47;100692.44;5068830;27;20502;-85
2021/07/24 23:07:46;;;;;;;20.08;14.80;;;;;;;19.18;94.41;100686.75;5062555;28;20063;-82
2021/07/24 23:10:12;;;;;;;22.52;15.68;;;;;;;19.15;95.63;100679.16;5079359;28;20028;-81
2021/07/24 23:12:37;;;;;;;17.98;14.70;;;;;;;19.11;96.07;100672.63;5078529;28;20035;-82
2021/07/24 23:15:03;;;;;;;20.65;16.38;;;;;;;19.06;95.93;100677.72;5083211;28;20031;-79
2021/07/24 23:17:29;;;;;;;20.17;16.67;;;;;;;19.03;95.80;100667.53;5091805;28;20040;-85
2021/07/24 23:19:55;;;;;;;26.30;16.30;;;;;;;19.06;95.72;100681.22;5091882;28;20032;-85
2021/07/24 23:22:21;;;;;;;23.67;16.27;;;;;;;18.94;94.98;100655.47;5094343;28;20042;-82
2021/07/24 23:24:47;;;;;;;23.85;16.50;;;;;;;18.93;95.85;100641.34;5098938;28;20425;-82
2021/07/24 23:27:12;;;;;;;22.52;15.48;;;;;;;19.01;93.96;100657.09;5069852;28;20049;-83
2021/07/24 23:29:38;;;;;;;20.95;16.23;;;;;;;19.05;94.40;100663.63;5082875;28;20055;-81
2021/07/24 23:32:04;;;;;;;24.48;17.60;;;;;;;19.08;93.61;100657.09;5083739;28;20028;-79
2021/07/24 23:34:29;;;;;;;21.73;15.88;;;;;;;19.10;92.60;100654.22;5076599;28;20760;-82
2021/07/24 23:36:55;;;;;;;19.75;15.70;;;;;;;19.17;92.89;100655.84;5091932;28;20492;-83
2021/07/24 23:39:20;;;;;;;19.67;15.00;;;;;;;19.18;93.05;100646.88;5057424;28;20031;-85
2021/07/24 23:41:46;;;;;;;19.77;14.90;;;;;;;19.15;92.92;100644.59;5064177;28;20035;-85
2021/07/24 23:44:11;;;;;;;20.92;14.07;;;;;;;19.19;92.26;100647.66;5073624;28;20034;-83
2021/07/24 23:46:36;;;;;;;19.10;14.50;;;;;;;19.14;92.02;100628.88;5071028;28;20067;-78
2021/07/24 23:49:02;;;;;;;17.60;13.77;;;;;;;19.28;91.84;100637.66;5065758;28;20433;-83
2021/07/24 23:51:27;;;;;;;28.00;14.75;;;;;;;19.22;91.46;100637.44;5078495;28;20071;-81
2021/07/24 23:53:53;;;;;;;20.67;14.57;;;;;;;19.25;91.69;100639.69;5083540;28;20481;-81
2021/07/24 23:56:18;;;;;;;19.15;13.82;;;;;;;19.25;91.12;100641.56;5095288;28;20120;-79
2021/07/24 23:58:44;;;;;;;17.80;13.70;;;;;;;19.32;91.14;100642.34;5083955;28;20038;-79
